Rock Creek, North Carolina
Current Conditions -  °F | °C
As of 3:54 PM on Sunday 23 Nov 2014 (Local Time) from KBUY Reporting Station
Haze Haze  
Wind Chill: 53°   Ceiling: 1000
Heat Index: 53°   Visibility: 5mi
Dew Point: 51°   Wind: 5mph
Humidity: 93%   Direction: 80°E
Pressure: 30.01"   Gusts: NA
Location:  35.9026°N, 79.4229°W
Report Text: KBUY 232054Z AUTO 08004KT 5SM BR OVC010 12/11 A3001 RMK AO2 RAE53 SLP163 P0001 60001 T01170106 56027
Loading
Personal Weather Stations






























Interactive Weather Map New forecast layout! Learn more

10-Day Weather Forecast

Advertisements
Track Severe Weather on mobile